Time;durP1;ratioP1;P1;durP2;ratioP2;P2;SDS_P1;SDS_P2;PMS_P1;PMS_P2;Temp;Humidity;BMP_temperature;BMP_pressure;BME280_temperature;BME280_humidity;BME280_pressure;Samples;Min_cycle;Max_cycle;Signal;HPM_P1;HPM_P2
2022/05/19 00:03:42;;;;;;;4.50;4.10;;;;;;;;;;4991228;28;20184;-76
2022/05/19 00:06:09;;;;;;;4.53;4.13;;;;;;;;;;4976041;28;20573;-76
2022/05/19 00:08:35;;;;;;;4.00;3.60;;;;;;;;;;4992139;28;20183;-76
2022/05/19 00:11:03;;;;;;;4.20;3.90;;;;;;;;;;4992099;28;20266;-76
2022/05/19 00:13:30;;;;;;;4.03;3.67;;;;;;;;;;4991600;28;20274;-76
2022/05/19 00:15:56;;;;;;;4.40;4.00;;;;;;;;;;4991746;28;20562;-76
2022/05/19 00:18:22;;;;;;;4.53;3.90;;;;;;;;;;4992155;28;20225;-76
2022/05/19 00:20:48;;;;;;;3.97;3.57;;;;;;;;;;4991549;28;20679;-76
2022/05/19 00:23:15;;;;;;;3.93;3.63;;;;;;;;;;4976552;28;20682;-76
2022/05/19 00:25:41;;;;;;;4.40;3.80;;;;;;;;;;4991894;28;20193;-76
2022/05/19 00:28:07;;;;;;;5.40;3.70;;;;;;;;;;4991533;28;20260;-76
2022/05/19 00:30:33;;;;;;;4.60;3.63;;;;;;;;;;4991613;28;20552;-76
2022/05/19 00:32:59;;;;;;;4.17;3.80;;;;;;;;;;4991178;28;20271;-76
2022/05/19 00:35:25;;;;;;;4.33;3.90;;;;;;;;;;4991334;28;20300;-76
2022/05/19 00:37:51;;;;;;;4.27;3.83;;;;;;;;;;4991280;28;20184;-76
2022/05/19 00:40:18;;;;;;;5.10;4.00;;;;;;;;;;4991636;28;20619;-76
2022/05/19 00:42:44;;;;;;;4.23;3.53;;;;;;;;;;4991280;28;20231;-76
2022/05/19 00:45:15;;;;;;;4.47;3.63;;;;;;;;;;4991037;28;20623;-76
2022/05/19 00:47:47;;;;;;;4.00;3.60;;;;;;;;;;4991269;28;20176;-76
2022/05/19 00:50:19;;;;;;;4.00;3.60;;;;;;;;;;4991197;28;20214;-76
2022/05/19 00:52:46;;;;;;;3.90;3.60;;;;;;;;;;4991339;28;20231;-76
2022/05/19 00:55:18;;;;;;;3.97;3.40;;;;;;;;;;4976037;28;20216;-76
2022/05/19 00:57:46;;;;;;;4.00;3.60;;;;;;;;;;4991372;28;20181;-76
2022/05/19 01:00:20;;;;;;;3.80;3.50;;;;;;;;;;4990946;28;20191;-76
2022/05/19 01:02:49;;;;;;;4.30;3.90;;;;;;;;;;4990829;28;20180;-76
2022/05/19 01:05:22;;;;;;;3.93;3.30;;;;;;;;;;4990856;28;20270;-76
2022/05/19 01:07:52;;;;;;;4.40;3.70;;;;;;;;;;4991192;28;20545;-76
2022/05/19 01:10:18;;;;;;;4.23;3.60;;;;;;;;;;4975879;28;20203;-76
2022/05/19 01:12:46;;;;;;;4.10;3.70;;;;;;;;;;4990682;28;20183;-76
2022/05/19 01:15:13;;;;;;;3.63;3.33;;;;;;;;;;4990929;28;20200;-76
2022/05/19 01:17:39;;;;;;;3.60;3.30;;;;;;;;;;4990914;28;20259;-76
2022/05/19 01:20:31;;;;;;;5.03;3.40;;;;;;;;;;4990719;28;20191;-76
2022/05/19 01:23:00;;;;;;;4.20;3.30;;;;;;;;;;4990760;28;20176;-76
2022/05/19 01:25:30;;;;;;;3.53;3.23;;;;;;;;;;4990795;28;20200;-76
2022/05/19 01:27:56;;;;;;;3.93;3.20;;;;;;;;;;4990766;28;20169;-76
2022/05/19 01:30:22;;;;;;;3.70;3.30;;;;;;;;;;4975314;28;20208;-76
2022/05/19 01:32:48;;;;;;;3.33;3.03;;;;;;;;;;4990540;28;20183;-76
2022/05/19 01:35:14;;;;;;;3.67;3.10;;;;;;;;;;4975286;28;20196;-76
2022/05/19 01:37:40;;;;;;;3.30;2.70;;;;;;;;;;4990634;28;20176;-76
2022/05/19 01:40:09;;;;;;;4.03;3.00;;;;;;;;;;4990296;28;20181;-76
2022/05/19 01:42:44;;;;;;;3.40;2.93;;;;;;;;;;4989809;28;20188;-76
2022/05/19 01:45:29;;;;;;;4.73;3.17;;;;;;;;;;4975141;28;20588;-76
2022/05/19 01:48:01;;;;;;;3.33;3.03;;;;;;;;;;4990098;28;20635;-76
2022/05/19 01:50:27;;;;;;;3.80;3.20;;;;;;;;;;4990104;28;20212;-76
2022/05/19 01:53:11;;;;;;;3.30;3.00;;;;;;;;;;4974818;28;20195;-76
2022/05/19 01:55:47;;;;;;;3.23;2.87;;;;;;;;;;4990199;28;20208;-76
2022/05/19 01:58:39;;;;;;;3.07;2.77;;;;;;;;;;4989945;28;20262;-76
2022/05/19 02:01:07;;;;;;;3.17;2.87;;;;;;;;;;4973304;28;20184;-76
2022/05/19 02:03:33;;;;;;;3.77;2.83;;;;;;;;;;4974695;28;20173;-76
2022/05/19 02:06:21;;;;;;;3.03;2.70;;;;;;;;;;4991710;28;20254;-76
2022/05/19 02:08:49;;;;;;;2.87;2.57;;;;;;;;;;4973617;28;20286;-76
2022/05/19 02:11:21;;;;;;;3.37;2.60;;;;;;;;;;4973441;28;20208;-76
2022/05/19 02:13:48;;;;;;;2.87;2.67;;;;;;;;;;4973378;28;20180;-76
2022/05/19 02:16:15;;;;;;;3.10;2.80;;;;;;;;;;4974585;28;20218;-76
2022/05/19 02:19:04;;;;;;;2.80;2.60;;;;;;;;;;4973541;28;20243;-76
2022/05/19 02:21:30;;;;;;;2.83;2.50;;;;;;;;;;4973604;28;20224;-76
2022/05/19 02:23:57;;;;;;;2.90;2.70;;;;;;;;;;4973395;28;20184;-76
2022/05/19 02:26:23;;;;;;;3.70;2.93;;;;;;;;;;4973510;28;20247;-76
2022/05/19 02:29:01;;;;;;;3.03;2.80;;;;;;;;;;4973152;28;20250;-76
2022/05/19 02:31:27;;;;;;;3.33;2.70;;;;;;;;;;4973090;28;20200;-76
2022/05/19 02:33:53;;;;;;;3.00;2.60;;;;;;;;;;4972915;28;20180;-76
2022/05/19 02:36:19;;;;;;;3.17;2.50;;;;;;;;;;4973410;28;20659;-76
2022/05/19 02:38:45;;;;;;;3.50;2.70;;;;;;;;;;4973465;28;20185;-76
2022/05/19 02:41:11;;;;;;;3.73;2.93;;;;;;;;;;4973117;28;20176;-76
2022/05/19 02:43:37;;;;;;;3.00;2.70;;;;;;;;;;4972810;28;20200;-76
2022/05/19 02:46:03;;;;;;;3.03;2.73;;;;;;;;;;4973022;28;20239;-76
2022/05/19 02:48:30;;;;;;;4.23;3.00;;;;;;;;;;4972952;28;20207;-76
2022/05/19 02:50:56;;;;;;;2.90;2.70;;;;;;;;;;4972791;28;20211;-76
2022/05/19 02:53:22;;;;;;;3.27;2.97;;;;;;;;;;4972490;28;20176;-76
2022/05/19 02:55:48;;;;;;;3.20;2.83;;;;;;;;;;4972885;28;20200;-76
2022/05/19 02:58:15;;;;;;;2.80;2.60;;;;;;;;;;4972752;28;20195;-76
2022/05/19 03:00:41;;;;;;;2.90;2.70;;;;;;;;;;4973009;28;20572;-77
2022/05/19 03:03:07;;;;;;;4.60;2.90;;;;;;;;;;4972484;28;20666;-76
2022/05/19 03:05:34;;;;;;;3.73;3.00;;;;;;;;;;4972620;28;20247;-76
2022/05/19 03:08:00;;;;;;;2.90;2.50;;;;;;;;;;4972958;28;20173;-76
2022/05/19 03:10:26;;;;;;;3.37;3.07;;;;;;;;;;4973801;28;20257;-76
2022/05/19 03:12:54;;;;;;;3.03;2.70;;;;;;;;;;4972679;28;20180;-76
2022/05/19 03:15:20;;;;;;;4.13;2.60;;;;;;;;;;4972826;28;20232;-76
2022/05/19 03:17:46;;;;;;;4.23;2.80;;;;;;;;;;4972924;28;20219;-76
2022/05/19 03:23:16;;;;;;;4.40;2.80;;;;;;;;;;4982604;28;20187;-76
2022/05/19 03:25:42;;;;;;;4.30;2.90;;;;;;;;;;5008442;28;20199;-76
2022/05/19 03:28:11;;;;;;;3.10;2.80;;;;;;;;;;4991948;28;20188;-76
2022/05/19 03:30:37;;;;;;;3.30;3.00;;;;;;;;;;5008227;28;20203;-76
2022/05/19 03:33:03;;;;;;;3.23;2.73;;;;;;;;;;5008359;28;20182;-76
2022/05/19 03:35:29;;;;;;;2.90;2.70;;;;;;;;;;4992414;28;20254;-75
2022/05/19 03:37:55;;;;;;;4.70;3.00;;;;;;;;;;4992769;28;20179;-75
2022/05/19 03:40:22;;;;;;;3.37;2.70;;;;;;;;;;5009035;28;20184;-76
2022/05/19 03:42:48;;;;;;;2.87;2.53;;;;;;;;;;5008182;28;20254;-75
2022/05/19 03:45:14;;;;;;;3.27;2.67;;;;;;;;;;4992784;28;20615;-76
2022/05/19 03:47:40;;;;;;;4.83;2.80;;;;;;;;;;4992543;28;20179;-75
2022/05/19 03:50:06;;;;;;;3.40;3.10;;;;;;;;;;4992059;28;20195;-75
2022/05/19 03:52:32;;;;;;;3.67;2.60;;;;;;;;;;4992555;28;20188;-76
2022/05/19 03:54:59;;;;;;;3.40;3.10;;;;;;;;;;4992420;28;20262;-75
2022/05/19 03:57:25;;;;;;;3.37;2.70;;;;;;;;;;4992351;28;20605;-75
2022/05/19 03:59:51;;;;;;;3.97;2.90;;;;;;;;;;4992405;28;20175;-75
2022/05/19 04:02:17;;;;;;;3.23;2.90;;;;;;;;;;4992529;28;20179;-76
2022/05/19 04:04:43;;;;;;;3.60;3.30;;;;;;;;;;4992421;28;20215;-75
2022/05/19 04:07:10;;;;;;;3.70;3.10;;;;;;;;;;4996073;28;20673;-76
2022/05/19 04:09:36;;;;;;;3.50;3.20;;;;;;;;;;4995850;28;20262;-75
2022/05/19 04:12:02;;;;;;;2.87;2.67;;;;;;;;;;4995860;28;20227;-76
2022/05/19 04:14:28;;;;;;;3.23;2.97;;;;;;;;;;4995919;28;20294;-76
2022/05/19 04:16:54;;;;;;;3.23;2.80;;;;;;;;;;4995794;28;20216;-76
2022/05/19 04:19:24;;;;;;;3.30;3.00;;;;;;;;;;4995904;28;20250;-76
2022/05/19 04:21:50;;;;;;;4.57;3.10;;;;;;;;;;4995927;28;20667;-76
2022/05/19 04:24:16;;;;;;;3.20;2.90;;;;;;;;;;4995923;28;20642;-75
2022/05/19 04:26:42;;;;;;;4.03;3.40;;;;;;;;;;4995386;28;20230;-76
2022/05/19 04:29:08;;;;;;;3.23;2.90;;;;;;;;;;4995669;28;20252;-76
2022/05/19 04:31:34;;;;;;;5.10;3.27;;;;;;;;;;4995554;28;20195;-76
2022/05/19 04:34:00;;;;;;;4.20;3.57;;;;;;;;;;4994661;28;20191;-77
2022/05/19 04:36:26;;;;;;;3.83;3.53;;;;;;;;;;4995109;28;20179;-77
2022/05/19 04:38:52;;;;;;;4.87;3.50;;;;;;;;;;4994997;28;20227;-77
2022/05/19 04:41:18;;;;;;;4.63;3.70;;;;;;;;;;4994977;28;20188;-77
2022/05/19 04:43:44;;;;;;;4.60;3.50;;;;;;;;;;4994413;28;20186;-77
2022/05/19 04:46:10;;;;;;;5.57;4.13;;;;;;;;;;4994444;28;20238;-77
2022/05/19 04:48:36;;;;;;;3.60;3.17;;;;;;;;;;4995714;28;20560;-77
2022/05/19 04:51:02;;;;;;;3.93;3.50;;;;;;;;;;4994736;28;20286;-76
2022/05/19 04:53:29;;;;;;;3.03;2.77;;;;;;;;;;4994747;28;20566;-77
2022/05/19 04:55:55;;;;;;;3.20;2.67;;;;;;;;;;4994315;28;20192;-77
2022/05/19 04:58:21;;;;;;;2.90;2.60;;;;;;;;;;4995626;28;20172;-76
2022/05/19 05:00:49;;;;;;;4.07;2.63;;;;;;;;;;4994326;28;20183;-77
2022/05/19 05:03:15;;;;;;;3.90;2.60;;;;;;;;;;4994092;28;20326;-77
2022/05/19 05:05:41;;;;;;;3.80;3.20;;;;;;;;;;4994327;28;20219;-77
2022/05/19 05:08:07;;;;;;;2.77;2.57;;;;;;;;;;4994497;28;20187;-79
2022/05/19 05:10:33;;;;;;;3.67;3.37;;;;;;;;;;4995023;28;20207;-77
2022/05/19 05:13:09;;;;;;;3.90;3.50;;;;;;;;;;4994426;28;20271;-77
2022/05/19 05:15:36;;;;;;;4.57;3.73;;;;;;;;;;4994237;28;20206;-76
2022/05/19 05:18:02;;;;;;;4.50;3.67;;;;;;;;;;4993166;28;20179;-76
2022/05/19 05:20:47;;;;;;;3.83;3.53;;;;;;;;;;4994204;28;20210;-76
2022/05/19 05:23:13;;;;;;;5.37;3.43;;;;;;;;;;4993740;28;20191;-77
2022/05/19 05:25:39;;;;;;;4.40;4.00;;;;;;;;;;4994020;28;20207;-77
2022/05/19 05:28:05;;;;;;;6.30;3.80;;;;;;;;;;4994161;28;20180;-77
2022/05/19 05:30:32;;;;;;;4.47;3.53;;;;;;;;;;4994846;28;20196;-77
2022/05/19 05:33:05;;;;;;;4.33;4.00;;;;;;;;;;4993831;28;20180;-76
2022/05/19 05:35:31;;;;;;;5.30;4.37;;;;;;;;;;4993608;28;20694;-76
2022/05/19 05:37:57;;;;;;;4.23;3.90;;;;;;;;;;4993885;28;20734;-76
2022/05/19 05:40:26;;;;;;;4.40;4.00;;;;;;;;;;4993769;28;20263;-77
2022/05/19 05:42:52;;;;;;;4.13;3.73;;;;;;;;;;4992441;28;20195;-76
2022/05/19 05:45:18;;;;;;;5.37;4.43;;;;;;;;;;4994162;28;20290;-77
2022/05/19 05:47:44;;;;;;;5.13;4.63;;;;;;;;;;4993755;28;20581;-77
2022/05/19 05:50:10;;;;;;;5.03;4.47;;;;;;;;;;4977122;28;20700;-77
2022/05/19 05:52:36;;;;;;;4.97;4.50;;;;;;;;;;4993143;28;20176;-76
2022/05/19 05:55:02;;;;;;;5.33;3.20;;;;;;;;;;4993606;28;20214;-76
2022/05/19 05:57:28;;;;;;;6.67;3.73;;;;;;;;;;4977438;28;20199;-76
2022/05/19 05:59:55;;;;;;;4.43;4.03;;;;;;;;;;4993137;28;20180;-76
2022/05/19 06:02:21;;;;;;;5.83;4.90;;;;;;;;;;4993600;28;20180;-78
2022/05/19 06:04:47;;;;;;;5.13;4.70;;;;;;;;;;4977404;28;20215;-78
2022/05/19 06:07:13;;;;;;;5.27;4.77;;;;;;;;;;4993042;28;20187;-76
2022/05/19 06:12:43;;;;;;;4.50;4.10;;;;;;;;;;4994043;28;20166;-76
2022/05/19 06:15:10;;;;;;;4.47;4.07;;;;;;;;;;4994369;28;20184;-77
2022/05/19 06:17:39;;;;;;;4.20;3.80;;;;;;;;;;4994311;28;20171;-77
2022/05/19 06:20:05;;;;;;;5.00;4.60;;;;;;;;;;4976966;28;20176;-77
2022/05/19 06:22:31;;;;;;;5.23;4.83;;;;;;;;;;4976681;28;20179;-77
2022/05/19 06:24:57;;;;;;;6.40;4.40;;;;;;;;;;4992965;28;20549;-78
2022/05/19 06:27:23;;;;;;;4.20;3.80;;;;;;;;;;4976591;28;20180;-77
2022/05/19 06:29:49;;;;;;;4.17;3.17;;;;;;;;;;4992858;28;20203;-77
2022/05/19 06:32:15;;;;;;;4.03;3.63;;;;;;;;;;4977060;28;20270;-80
2022/05/19 06:34:41;;;;;;;2.90;2.70;;;;;;;;;;4977327;28;20203;-78
2022/05/19 06:37:07;;;;;;;3.40;3.10;;;;;;;;;;4976641;28;20180;-77
2022/05/19 06:39:33;;;;;;;3.70;2.90;;;;;;;;;;4992626;28;20187;-77
2022/05/19 06:42:02;;;;;;;5.13;3.00;;;;;;;;;;4992546;28;20222;-77
2022/05/19 06:44:32;;;;;;;3.10;2.77;;;;;;;;;;4976866;28;20258;-77
2022/05/19 06:46:58;;;;;;;2.97;2.60;;;;;;;;;;4992259;28;20628;-77
2022/05/19 06:49:24;;;;;;;2.93;2.57;;;;;;;;;;4992365;28;20195;-77
2022/05/19 06:51:50;;;;;;;2.30;2.00;;;;;;;;;;4976273;28;20200;-77
2022/05/19 06:54:16;;;;;;;4.80;2.03;;;;;;;;;;4992119;28;20199;-77
2022/05/19 06:56:42;;;;;;;2.30;2.10;;;;;;;;;;4992307;28;20470;-77
2022/05/19 06:59:08;;;;;;;3.70;1.93;;;;;;;;;;4992283;28;20176;-77
2022/05/19 07:01:35;;;;;;;2.73;1.80;;;;;;;;;;4976033;28;20560;-77
2022/05/19 07:04:01;;;;;;;2.35;1.77;;;;;;;;;;4992306;28;20179;-77
2022/05/19 07:06:27;;;;;;;2.33;2.13;;;;;;;;;;4976140;28;20207;-77
2022/05/19 07:08:53;;;;;;;2.80;2.30;;;;;;;;;;4976057;28;20192;-77
2022/05/19 07:11:28;;;;;;;3.25;1.90;;;;;;;;;;4975887;28;20576;-77
2022/05/19 07:13:55;;;;;;;2.03;1.70;;;;;;;;;;4977343;28;20202;-77
2022/05/19 07:16:30;;;;;;;2.20;1.70;;;;;;;;;;4991633;28;20566;-77
2022/05/19 07:21:42;;;;;;;2.55;1.90;;;;;;;;;;4993425;28;20171;-77
2022/05/19 07:24:10;;;;;;;2.63;1.73;;;;;;;;;;4991744;28;20184;-77
2022/05/19 07:26:36;;;;;;;2.00;1.70;;;;;;;;;;4992049;28;20179;-77
2022/05/19 07:29:02;;;;;;;2.08;1.50;;;;;;;;;;4975916;28;20226;-77
2022/05/19 07:31:28;;;;;;;1.73;1.60;;;;;;;;;;4975898;28;20207;-77
2022/05/19 07:33:54;;;;;;;2.63;1.52;;;;;;;;;;4975702;28;20176;-77
2022/05/19 07:36:21;;;;;;;2.35;1.80;;;;;;;;;;4975646;28;20199;-77
2022/05/19 07:38:47;;;;;;;2.45;1.48;;;;;;;;;;4975872;28;20669;-77
2022/05/19 07:41:12;;;;;;;1.55;1.45;;;;;;;;;;4978225;28;20180;-77
2022/05/19 07:43:41;;;;;;;1.70;1.60;;;;;;;;;;4976101;28;20279;-77
2022/05/19 07:46:08;;;;;;;1.80;1.52;;;;;;;;;;4992174;28;20192;-77
2022/05/19 07:48:35;;;;;;;1.45;1.30;;;;;;;;;;4976488;28;20189;-77
2022/05/19 07:51:02;;;;;;;2.30;1.60;;;;;;;;;;4992453;28;20224;-77
2022/05/19 07:53:28;;;;;;;2.20;1.48;;;;;;;;;;4992059;28;20172;-77
2022/05/19 07:55:54;;;;;;;2.88;1.33;;;;;;;;;;4976335;28;20200;-77
2022/05/19 07:58:20;;;;;;;2.08;1.25;;;;;;;;;;4992606;28;20176;-77
2022/05/19 08:00:46;;;;;;;1.65;1.10;;;;;;;;;;4977249;28;20259;-77
2022/05/19 08:03:13;;;;;;;2.20;1.20;;;;;;;;;;4991990;28;20176;-77
2022/05/19 08:05:39;;;;;;;1.98;1.20;;;;;;;;;;4992074;28;20216;-76
2022/05/19 08:08:05;;;;;;;1.25;1.15;;;;;;;;;;4992112;28;20255;-76
2022/05/19 08:10:31;;;;;;;1.40;1.30;;;;;;;;;;4976879;28;20275;-76
2022/05/19 08:15:58;;;;;;;1.35;1.20;;;;;;;;;;4976900;28;20231;-77
2022/05/19 08:18:25;;;;;;;2.08;1.27;;;;;;;;;;4992267;28;20168;-77
2022/05/19 08:20:53;;;;;;;1.88;1.25;;;;;;;;;;4991704;28;20243;-77
2022/05/19 08:23:23;;;;;;;2.55;1.42;;;;;;;;;;4991876;28;20176;-77
2022/05/19 08:25:50;;;;;;;2.40;1.30;;;;;;;;;;4992018;28;20192;-76
2022/05/19 08:28:17;;;;;;;1.30;1.20;;;;;;;;;;4991948;28;20187;-76
2022/05/19 08:30:44;;;;;;;1.48;1.25;;;;;;;;;;4991827;28;20200;-76
2022/05/19 08:33:10;;;;;;;1.90;1.27;;;;;;;;;;4991676;28;20176;-76
2022/05/19 08:35:36;;;;;;;1.80;1.50;;;;;;;;;;4975477;28;20197;-76
2022/05/19 08:38:02;;;;;;;2.85;1.40;;;;;;;;;;4991735;28;20240;-76
2022/05/19 08:40:28;;;;;;;1.50;1.40;;;;;;;;;;4975401;28;20323;-76
2022/05/19 08:42:57;;;;;;;1.30;1.20;;;;;;;;;;4991226;28;20176;-76
2022/05/19 08:45:27;;;;;;;2.42;1.30;;;;;;;;;;4976332;28;20230;-76
2022/05/19 08:47:57;;;;;;;1.48;1.30;;;;;;;;;;4991286;28;20223;-76
2022/05/19 08:50:29;;;;;;;2.20;1.48;;;;;;;;;;4991060;28;20239;-76
2022/05/19 08:52:55;;;;;;;3.55;1.42;;;;;;;;;;4974724;28;20156;-76
2022/05/19 08:55:21;;;;;;;1.60;1.30;;;;;;;;;;4991068;28;20196;-76
2022/05/19 08:58:23;;;;;;;2.78;1.60;;;;;;;;;;4975248;28;20180;-76
2022/05/19 09:00:51;;;;;;;1.88;1.50;;;;;;;;;;4938286;29;20204;-76
2022/05/19 09:03:24;;;;;;;3.05;1.40;;;;;;;;;;4972043;28;20262;-76
2022/05/19 09:06:09;;;;;;;1.73;1.55;;;;;;;;;;4990851;28;20270;-76
2022/05/19 09:08:41;;;;;;;1.60;1.50;;;;;;;;;;4991296;28;20234;-76
2022/05/19 09:11:13;;;;;;;1.52;1.40;;;;;;;;;;4990835;28;20188;-77
2022/05/19 09:13:54;;;;;;;2.28;1.60;;;;;;;;;;4974831;28;20227;-77
2022/05/19 09:16:38;;;;;;;2.90;1.50;;;;;;;;;;4990397;28;20200;-77
2022/05/19 09:19:09;;;;;;;2.10;1.50;;;;;;;;;;4974520;28;20176;-77
2022/05/19 09:21:37;;;;;;;1.73;1.58;;;;;;;;;;4990582;28;20172;-76
2022/05/19 09:24:04;;;;;;;3.03;1.67;;;;;;;;;;4974204;28;20777;-76
2022/05/19 09:26:39;;;;;;;1.98;1.73;;;;;;;;;;4990662;28;20273;-76
2022/05/19 09:29:07;;;;;;;3.40;2.00;;;;;;;;;;4990440;28;20172;-76
2022/05/19 09:31:38;;;;;;;2.67;1.70;;;;;;;;;;4990358;28;20423;-76
2022/05/19 09:34:06;;;;;;;1.85;1.70;;;;;;;;;;4990167;28;20168;-76
2022/05/19 09:36:38;;;;;;;2.20;1.40;;;;;;;;;;5032257;23;20223;-76
2022/05/19 09:39:05;;;;;;;2.35;1.50;;;;;;;;;;4977749;28;20591;-76
2022/05/19 09:41:40;;;;;;;3.45;1.60;;;;;;;;;;4992602;28;20179;-76
2022/05/19 09:44:11;;;;;;;1.92;1.58;;;;;;;;;;4992002;28;20179;-76
2022/05/19 09:46:39;;;;;;;3.10;1.80;;;;;;;;;;4993516;28;20207;-76
2022/05/19 09:49:06;;;;;;;2.45;1.50;;;;;;;;;;4993849;28;20175;-76
2022/05/19 09:51:42;;;;;;;2.30;1.60;;;;;;;;;;4994509;28;20196;-76
2022/05/19 09:54:15;;;;;;;2.22;1.52;;;;;;;;;;4993284;28;20247;-76
2022/05/19 09:56:46;;;;;;;2.17;1.70;;;;;;;;;;5008906;28;20666;-76
2022/05/19 09:59:35;;;;;;;2.40;1.70;;;;;;;;;;4993567;28;20186;-76
2022/05/19 10:02:05;;;;;;;1.88;1.67;;;;;;;;;;4992622;28;20183;-76
2022/05/19 10:04:41;;;;;;;1.80;1.60;;;;;;;;;;4992698;28;20175;-76
2022/05/19 10:07:33;;;;;;;2.42;1.60;;;;;;;;;;5008454;28;20195;-76
2022/05/19 10:09:59;;;;;;;1.92;1.70;;;;;;;;;;4993202;28;20222;-77
2022/05/19 10:12:28;;;;;;;1.70;1.60;;;;;;;;;;4992779;28;20176;-77
2022/05/19 10:15:01;;;;;;;2.00;1.63;;;;;;;;;;4993276;28;20179;-77
2022/05/19 10:17:50;;;;;;;3.35;1.60;;;;;;;;;;4994048;28;20199;-76
2022/05/19 10:20:25;;;;;;;2.90;1.50;;;;;;;;;;4994150;28;20175;-77
2022/05/19 10:23:00;;;;;;;2.15;1.50;;;;;;;;;;4993032;28;20168;-76
2022/05/19 10:25:45;;;;;;;2.33;1.70;;;;;;;;;;4992745;28;20171;-77
2022/05/19 10:31:31;;;;;;;1.63;1.48;;;;;;;;;;4993942;28;20206;-77
2022/05/19 10:33:57;;;;;;;2.13;1.63;;;;;;;;;;4993738;28;20669;-75
2022/05/19 10:36:29;;;;;;;2.28;1.50;;;;;;;;;;4993800;28;20200;-76
2022/05/19 10:38:58;;;;;;;2.22;1.55;;;;;;;;;;4992950;28;20182;-76
2022/05/19 10:41:37;;;;;;;1.70;1.50;;;;;;;;;;4994250;28;20227;-76
2022/05/19 10:44:06;;;;;;;2.05;1.67;;;;;;;;;;4993915;28;20155;-76
2022/05/19 10:46:41;;;;;;;2.15;1.60;;;;;;;;;;4992261;28;20287;-76
2022/05/19 10:49:27;;;;;;;1.58;1.48;;;;;;;;;;4992597;28;20173;-76
2022/05/19 10:52:09;;;;;;;3.38;1.50;;;;;;;;;;4992349;28;20670;-76
2022/05/19 10:54:44;;;;;;;2.28;1.30;;;;;;;;;;4992518;28;20195;-76
2022/05/19 10:57:30;;;;;;;2.55;1.45;;;;;;;;;;4992806;28;20195;-76
2022/05/19 11:00:15;;;;;;;1.52;1.42;;;;;;;;;;4992291;28;20271;-76
2022/05/19 11:02:45;;;;;;;2.30;1.30;;;;;;;;;;4992202;28;20172;-76
2022/05/19 11:05:23;;;;;;;2.58;1.50;;;;;;;;;;4993574;28;20167;-76
2022/05/19 11:08:15;;;;;;;2.20;1.42;;;;;;;;;;4993669;28;20211;-76
2022/05/19 11:11:03;;;;;;;2.20;1.60;;;;;;;;;;4992265;28;20191;-76
2022/05/19 11:13:48;;;;;;;2.03;1.45;;;;;;;;;;4992303;28;20194;-76
2022/05/19 11:16:28;;;;;;;1.40;1.30;;;;;;;;;;4989670;28;20310;-76
2022/05/19 11:19:13;;;;;;;2.70;1.40;;;;;;;;;;4991916;28;20168;-76
2022/05/19 11:21:42;;;;;;;3.50;1.38;;;;;;;;;;4977102;28;20184;-76
2022/05/19 11:24:24;;;;;;;2.70;1.35;;;;;;;;;;4956377;28;20331;-76
2022/05/19 11:26:57;;;;;;;1.85;1.58;;;;;;;;;;4973601;28;20659;-76
2022/05/19 11:29:32;;;;;;;1.98;1.60;;;;;;;;;;4988705;28;20184;-76
2022/05/19 11:32:02;;;;;;;1.65;1.55;;;;;;;;;;4973328;28;20658;-76
2022/05/19 11:34:42;;;;;;;3.33;1.60;;;;;;;;;;4973694;28;20165;-76
2022/05/19 11:37:10;;;;;;;2.30;1.50;;;;;;;;;;4973706;28;20295;-76
2022/05/19 11:39:40;;;;;;;1.75;1.50;;;;;;;;;;4988959;28;20168;-77
2022/05/19 11:42:25;;;;;;;2.83;1.77;;;;;;;;;;4988527;28;20208;-76
2022/05/19 11:44:51;;;;;;;2.25;1.40;;;;;;;;;;4988785;28;20610;-76
2022/05/19 11:55:47;;;;;;;4.18;1.70;;;;;;;;;;4973761;28;20172;-76
2022/05/19 11:58:20;;;;;;;2.67;1.77;;;;;;;;;;4988746;28;20188;-76
2022/05/19 12:00:47;;;;;;;2.40;1.70;;;;;;;;;;4988420;28;20187;-76
2022/05/19 12:03:24;;;;;;;2.03;1.73;;;;;;;;;;4988590;28;20185;-76
2022/05/19 12:05:58;;;;;;;2.53;1.60;;;;;;;;;;4973552;28;20635;-76
2022/05/19 12:08:38;;;;;;;1.65;1.55;;;;;;;;;;4988520;28;20227;-76
2022/05/19 12:11:20;;;;;;;1.77;1.67;;;;;;;;;;4973368;28;20287;-76
2022/05/19 12:13:48;;;;;;;3.60;2.20;;;;;;;;;;4988591;28;20168;-76
2022/05/19 12:16:15;;;;;;;2.58;2.30;;;;;;;;;;4988285;28;20192;-76
2022/05/19 12:19:05;;;;;;;5.30;2.78;;;;;;;;;;4973427;28;20180;-76
2022/05/19 12:21:46;;;;;;;3.75;3.08;;;;;;;;;;4988224;28;20176;-76
2022/05/19 12:24:13;;;;;;;6.97;3.03;;;;;;;;;;4988599;28;20176;-76
2022/05/19 12:26:51;;;;;;;4.10;2.60;;;;;;;;;;4990021;28;20196;-76
2022/05/19 12:29:24;;;;;;;3.17;2.50;;;;;;;;;;4991738;28;20172;-76
2022/05/19 12:31:59;;;;;;;4.00;2.13;;;;;;;;;;4991824;28;20259;-76
2022/05/19 12:34:44;;;;;;;4.15;2.20;;;;;;;;;;4976868;28;20144;-76
2022/05/19 12:37:30;;;;;;;2.75;2.20;;;;;;;;;;4991959;28;20263;-76
2022/05/19 12:40:16;;;;;;;4.70;2.20;;;;;;;;;;4975622;28;20161;-76
2022/05/19 12:42:43;;;;;;;3.10;1.80;;;;;;;;;;4991454;28;20200;-76
2022/05/19 12:45:17;;;;;;;2.67;2.00;;;;;;;;;;4975492;28;20543;-76
2022/05/19 12:47:55;;;;;;;2.17;1.90;;;;;;;;;;4976400;28;20183;-76
2022/05/19 12:50:22;;;;;;;3.38;1.75;;;;;;;;;;4991652;28;20207;-76
2022/05/19 12:53:01;;;;;;;2.10;1.90;;;;;;;;;;4976268;28;20567;-76
2022/05/19 12:55:30;;;;;;;2.75;1.85;;;;;;;;;;4991206;28;20175;-76
2022/05/19 12:57:58;;;;;;;1.90;1.80;;;;;;;;;;4991207;28;20216;-76
2022/05/19 13:00:25;;;;;;;3.05;1.80;;;;;;;;;;4959269;28;20189;-76
2022/05/19 13:03:04;;;;;;;3.95;2.20;;;;;;;;;;4991137;28;20183;-76
2022/05/19 13:05:59;;;;;;;2.75;1.77;;;;;;;;;;4991207;28;20193;-76
2022/05/19 13:08:32;;;;;;;3.20;1.60;;;;;;;;;;4974817;28;20184;-76
2022/05/19 13:10:58;;;;;;;3.85;2.05;;;;;;;;;;4976341;28;20671;-76
2022/05/19 13:13:30;;;;;;;3.45;1.80;;;;;;;;;;4991126;28;20204;-76
2022/05/19 13:15:57;;;;;;;2.03;1.80;;;;;;;;;;4991335;28;20184;-76
2022/05/19 13:18:28;;;;;;;2.75;1.80;;;;;;;;;;4991062;28;20172;-77
2022/05/19 13:21:04;;;;;;;2.38;2.08;;;;;;;;;;4958819;28;20631;-76
2022/05/19 13:23:30;;;;;;;4.45;2.00;;;;;;;;;;4991044;28;20180;-76
2022/05/19 13:26:15;;;;;;;4.45;1.90;;;;;;;;;;4990887;28;20176;-77
2022/05/19 13:31:27;;;;;;;2.85;1.90;;;;;;;;;;4976492;28;20558;-78
2022/05/19 13:33:58;;;;;;;2.55;2.00;;;;;;;;;;4991171;28;20699;-77
2022/05/19 13:36:32;;;;;;;3.03;1.90;;;;;;;;;;4991057;28;20833;-78
2022/05/19 13:39:09;;;;;;;2.95;1.85;;;;;;;;;;4975619;28;20171;-77
2022/05/19 13:41:41;;;;;;;4.68;2.20;;;;;;;;;;4975640;28;20175;-77
2022/05/19 13:44:09;;;;;;;2.65;1.85;;;;;;;;;;4990787;28;20161;-77
2022/05/19 13:46:37;;;;;;;3.90;1.83;;;;;;;;;;4990400;28;20196;-77
2022/05/19 13:49:06;;;;;;;2.50;2.05;;;;;;;;;;4990419;28;20243;-77
2022/05/19 13:51:46;;;;;;;2.45;1.90;;;;;;;;;;4974467;28;20689;-77
2022/05/19 13:54:13;;;;;;;1.80;1.70;;;;;;;;;;4975542;28;20183;-77
2022/05/19 13:56:44;;;;;;;2.72;1.83;;;;;;;;;;4992098;28;20264;-78
2022/05/19 13:59:12;;;;;;;4.03;1.80;;;;;;;;;;4959788;28;20179;-78
2022/05/19 14:01:42;;;;;;;2.38;1.88;;;;;;;;;;4977058;28;20177;-78
2022/05/19 14:04:08;;;;;;;3.75;1.98;;;;;;;;;;4992546;28;20177;-78
2022/05/19 14:06:36;;;;;;;2.33;1.95;;;;;;;;;;4961764;28;20200;-78
2022/05/19 14:09:03;;;;;;;2.38;1.92;;;;;;;;;;4993478;28;20665;-77
2022/05/19 14:11:29;;;;;;;4.20;2.00;;;;;;;;;;4993121;28;20204;-78
2022/05/19 14:13:57;;;;;;;2.25;2.05;;;;;;;;;;4993039;28;20636;-78
2022/05/19 14:16:24;;;;;;;3.03;1.85;;;;;;;;;;4992868;28;20342;-78
2022/05/19 14:19:02;;;;;;;4.30;2.08;;;;;;;;;;4992831;28;20180;-78
2022/05/19 14:21:29;;;;;;;3.33;1.90;;;;;;;;;;4978465;28;20172;-78
2022/05/19 14:24:00;;;;;;;2.65;2.10;;;;;;;;;;4978094;28;20251;-78
2022/05/19 14:27:01;;;;;;;5.22;1.98;;;;;;;;;;4992922;28;20192;-78
2022/05/19 14:29:29;;;;;;;3.08;2.05;;;;;;;;;;4986457;28;20194;-78
2022/05/19 14:32:03;;;;;;;3.60;2.00;;;;;;;;;;4992905;28;20204;-78
2022/05/19 14:34:40;;;;;;;2.45;1.90;;;;;;;;;;4977938;28;20172;-78
2022/05/19 14:37:13;;;;;;;4.50;2.28;;;;;;;;;;4992633;28;20298;-78
2022/05/19 14:39:45;;;;;;;2.78;2.05;;;;;;;;;;4992123;28;20647;-78
2022/05/19 14:44:59;;;;;;;2.03;1.90;;;;;;;;;;4976491;28;20263;-77
2022/05/19 14:47:26;;;;;;;2.65;1.90;;;;;;;;;;4957608;28;20235;-77
2022/05/19 14:49:58;;;;;;;2.85;2.13;;;;;;;;;;4989573;28;20179;-77
2022/05/19 14:52:30;;;;;;;2.40;2.20;;;;;;;;;;4989780;28;20183;-78
2022/05/19 14:54:57;;;;;;;3.90;2.30;;;;;;;;;;4989518;28;20176;-77
2022/05/19 14:57:24;;;;;;;3.90;2.20;;;;;;;;;;4989418;28;20227;-77
2022/05/19 14:59:53;;;;;;;3.60;2.30;;;;;;;;;;4989441;28;20177;-77
2022/05/19 15:02:19;;;;;;;3.53;2.17;;;;;;;;;;4974326;28;20566;-77
2022/05/19 15:04:45;;;;;;;4.40;2.40;;;;;;;;;;4989507;28;20553;-77
2022/05/19 15:07:17;;;;;;;3.03;2.10;;;;;;;;;;4957037;28;20235;-77
2022/05/19 15:09:43;;;;;;;3.38;2.10;;;;;;;;;;4989344;28;20164;-77
2022/05/19 15:12:09;;;;;;;2.78;2.20;;;;;;;;;;4956493;28;20212;-77
2022/05/19 15:14:35;;;;;;;3.28;2.30;;;;;;;;;;4957364;28;20284;-77
2022/05/19 15:17:01;;;;;;;2.35;2.15;;;;;;;;;;4957162;28;20743;-78
2022/05/19 15:19:27;;;;;;;4.90;2.10;;;;;;;;;;4957753;28;20180;-77
2022/05/19 15:21:53;;;;;;;5.03;2.42;;;;;;;;;;4972503;28;20180;-77
2022/05/19 15:24:22;;;;;;;2.47;2.03;;;;;;;;;;4988938;28;20566;-77
2022/05/19 15:26:48;;;;;;;4.38;2.35;;;;;;;;;;4957053;28;20196;-77
2022/05/19 15:29:15;;;;;;;2.30;2.10;;;;;;;;;;4974098;28;20235;-77
2022/05/19 15:31:41;;;;;;;3.88;2.03;;;;;;;;;;4988883;28;20199;-76